sensor_id;sensor_type;location;lat;lon;timestamp;pressure;altitude;pressure_sealevel;temperature;humidity
71145;BME280;58812;47.698;17.726;2023-07-20T00:01:12;99575.06;;;19.77;99.54
71145;BME280;58812;47.698;17.726;2023-07-20T00:03:38;99567.09;;;19.82;99.23
71145;BME280;58812;47.698;17.726;2023-07-20T00:06:04;99570.34;;;19.91;98.68
71145;BME280;58812;47.698;17.726;2023-07-20T00:08:30;99569.34;;;19.85;98.68
71145;BME280;58812;47.698;17.726;2023-07-20T00:10:56;99566.25;;;19.82;98.55
71145;BME280;58812;47.698;17.726;2023-07-20T00:13:21;99558.94;;;19.82;98.80
71145;BME280;58812;47.698;17.726;2023-07-20T00:15:47;99551.22;;;19.79;98.67
71145;BME280;58812;47.698;17.726;2023-07-20T00:18:13;99555.00;;;19.78;98.82
71145;BME280;58812;47.698;17.726;2023-07-20T00:20:39;99560.53;;;19.90;98.24
71145;BME280;58812;47.698;17.726;2023-07-20T00:23:05;99556.69;;;19.97;97.53
71145;BME280;58812;47.698;17.726;2023-07-20T00:25:30;99556.00;;;20.02;97.03
71145;BME280;58812;47.698;17.726;2023-07-20T00:27:56;99552.69;;;20.00;96.82
71145;BME280;58812;47.698;17.726;2023-07-20T00:30:21;99550.13;;;20.05;96.71
71145;BME280;58812;47.698;17.726;2023-07-20T00:32:46;99553.97;;;19.97;97.23
71145;BME280;58812;47.698;17.726;2023-07-20T00:35:13;99558.06;;;20.07;96.54
71145;BME280;58812;47.698;17.726;2023-07-20T00:37:39;99559.28;;;20.11;96.30
71145;BME280;58812;47.698;17.726;2023-07-20T00:40:06;99566.03;;;20.01;96.77
71145;BME280;58812;47.698;17.726;2023-07-20T00:42:32;99562.41;;;19.89;97.53
71145;BME280;58812;47.698;17.726;2023-07-20T00:44:58;99559.16;;;19.81;98.01
71145;BME280;58812;47.698;17.726;2023-07-20T00:47:23;99561.50;;;19.95;97.60
71145;BME280;58812;47.698;17.726;2023-07-20T00:49:50;99564.00;;;19.97;97.48
71145;BME280;58812;47.698;17.726;2023-07-20T00:52:16;99566.50;;;19.98;97.31
71145;BME280;58812;47.698;17.726;2023-07-20T00:54:42;99556.00;;;20.02;96.82
71145;BME280;58812;47.698;17.726;2023-07-20T00:57:09;99561.22;;;20.04;96.72
71145;BME280;58812;47.698;17.726;2023-07-20T00:59:35;99560.28;;;19.91;98.31
71145;BME280;58812;47.698;17.726;2023-07-20T01:02:01;99562.56;;;19.76;99.31
71145;BME280;58812;47.698;17.726;2023-07-20T01:04:27;99564.63;;;19.74;99.72
71145;BME280;58812;47.698;17.726;2023-07-20T01:07:15;99560.44;;;19.78;99.50
71145;BME280;58812;47.698;17.726;2023-07-20T01:09:47;99564.97;;;19.84;98.76
71145;BME280;58812;47.698;17.726;2023-07-20T01:12:22;99572.44;;;19.89;98.06
71145;BME280;58812;47.698;17.726;2023-07-20T01:14:51;99558.31;;;19.80;99.09
71145;BME280;58812;47.698;17.726;2023-07-20T01:17:17;99562.97;;;19.73;99.84
71145;BME280;58812;47.698;17.726;2023-07-20T01:19:42;99557.13;;;19.76;99.59
71145;BME280;58812;47.698;17.726;2023-07-20T01:24:56;99556.59;;;19.86;98.95
71145;BME280;58812;47.698;17.726;2023-07-20T01:32:40;99565.28;;;19.94;98.12
71145;BME280;58812;47.698;17.726;2023-07-20T01:35:09;99565.72;;;19.91;98.45
71145;BME280;58812;47.698;17.726;2023-07-20T01:37:35;99577.72;;;19.84;98.60
71145;BME280;58812;47.698;17.726;2023-07-20T01:40:02;99589.03;;;19.81;99.17
71145;BME280;58812;47.698;17.726;2023-07-20T01:42:28;99575.47;;;19.81;99.01
71145;BME280;58812;47.698;17.726;2023-07-20T01:44:54;99590.81;;;19.68;100.00
71145;BME280;58812;47.698;17.726;2023-07-20T01:47:20;99582.72;;;19.62;100.00
71145;BME280;58812;47.698;17.726;2023-07-20T01:49:45;99596.13;;;19.57;100.00
71145;BME280;58812;47.698;17.726;2023-07-20T01:52:11;99591.03;;;19.67;99.78
71145;BME280;58812;47.698;17.726;2023-07-20T01:54:36;99605.06;;;19.64;100.00
71145;BME280;58812;47.698;17.726;2023-07-20T01:57:02;99607.97;;;19.62;100.00
71145;BME280;58812;47.698;17.726;2023-07-20T01:59:28;99613.66;;;19.54;100.00
71145;BME280;58812;47.698;17.726;2023-07-20T02:01:53;99613.25;;;19.51;100.00
71145;BME280;58812;47.698;17.726;2023-07-20T02:04:19;99626.22;;;19.48;100.00
71145;BME280;58812;47.698;17.726;2023-07-20T02:06:44;99622.75;;;19.41;100.00
71145;BME280;58812;47.698;17.726;2023-07-20T02:09:09;99626.72;;;19.39;100.00
71145;BME280;58812;47.698;17.726;2023-07-20T02:11:35;99632.12;;;19.39;100.00
71145;BME280;58812;47.698;17.726;2023-07-20T02:14:00;99634.66;;;19.40;100.00
71145;BME280;58812;47.698;17.726;2023-07-20T02:16:26;99631.72;;;19.42;100.00
71145;BME280;58812;47.698;17.726;2023-07-20T02:18:52;99635.25;;;19.42;100.00
71145;BME280;58812;47.698;17.726;2023-07-20T02:21:17;99637.16;;;19.42;100.00
71145;BME280;58812;47.698;17.726;2023-07-20T02:23:43;99638.81;;;19.43;100.00
71145;BME280;58812;47.698;17.726;2023-07-20T02:26:08;99641.13;;;19.39;100.00
71145;BME280;58812;47.698;17.726;2023-07-20T02:28:34;99652.06;;;19.26;100.00
71145;BME280;58812;47.698;17.726;2023-07-20T02:30:59;99648.06;;;19.35;100.00
71145;BME280;58812;47.698;17.726;2023-07-20T02:33:25;99644.28;;;19.36;100.00
71145;BME280;58812;47.698;17.726;2023-07-20T02:35:51;99651.37;;;19.37;100.00
71145;BME280;58812;47.698;17.726;2023-07-20T02:38:17;99667.66;;;19.37;100.00
71145;BME280;58812;47.698;17.726;2023-07-20T02:40:42;99661.62;;;19.35;100.00
71145;BME280;58812;47.698;17.726;2023-07-20T02:43:07;99669.75;;;19.35;100.00
71145;BME280;58812;47.698;17.726;2023-07-20T02:45:35;99657.13;;;19.23;100.00
71145;BME280;58812;47.698;17.726;2023-07-20T02:48:00;99665.22;;;19.29;100.00
71145;BME280;58812;47.698;17.726;2023-07-20T02:50:26;99653.94;;;19.26;100.00
71145;BME280;58812;47.698;17.726;2023-07-20T02:52:51;99651.88;;;19.28;100.00
71145;BME280;58812;47.698;17.726;2023-07-20T02:55:17;99654.81;;;19.19;100.00
71145;BME280;58812;47.698;17.726;2023-07-20T02:57:42;99658.03;;;19.03;100.00
71145;BME280;58812;47.698;17.726;2023-07-20T03:00:08;99657.37;;;19.08;100.00
71145;BME280;58812;47.698;17.726;2023-07-20T03:02:34;99657.37;;;19.08;100.00
71145;BME280;58812;47.698;17.726;2023-07-20T03:04:59;99671.59;;;19.03;100.00
71145;BME280;58812;47.698;17.726;2023-07-20T03:07:27;99662.47;;;18.91;100.00
71145;BME280;58812;47.698;17.726;2023-07-20T03:09:53;99672.06;;;18.93;100.00
71145;BME280;58812;47.698;17.726;2023-07-20T03:12:20;99659.16;;;18.89;100.00
71145;BME280;58812;47.698;17.726;2023-07-20T03:14:45;99657.22;;;18.96;100.00
71145;BME280;58812;47.698;17.726;2023-07-20T03:17:11;99661.19;;;19.00;100.00
71145;BME280;58812;47.698;17.726;2023-07-20T03:19:36;99665.53;;;19.08;100.00
71145;BME280;58812;47.698;17.726;2023-07-20T03:22:01;99663.44;;;19.10;100.00
71145;BME280;58812;47.698;17.726;2023-07-20T03:24:27;99661.56;;;19.10;100.00
71145;BME280;58812;47.698;17.726;2023-07-20T03:26:52;99660.34;;;19.00;100.00
71145;BME280;58812;47.698;17.726;2023-07-20T03:29:18;99668.47;;;19.06;100.00
71145;BME280;58812;47.698;17.726;2023-07-20T03:31:43;99665.78;;;19.00;100.00
71145;BME280;58812;47.698;17.726;2023-07-20T03:34:09;99680.78;;;19.02;100.00
71145;BME280;58812;47.698;17.726;2023-07-20T03:36:34;99672.87;;;19.01;100.00
71145;BME280;58812;47.698;17.726;2023-07-20T03:39:00;99671.22;;;19.00;100.00
71145;BME280;58812;47.698;17.726;2023-07-20T03:41:25;99687.22;;;19.08;100.00
71145;BME280;58812;47.698;17.726;2023-07-20T03:43:50;99679.88;;;19.15;100.00
71145;BME280;58812;47.698;17.726;2023-07-20T03:46:16;99688.69;;;19.10;100.00
71145;BME280;58812;47.698;17.726;2023-07-20T03:48:41;99678.63;;;19.17;100.00
71145;BME280;58812;47.698;17.726;2023-07-20T03:51:07;99677.34;;;19.20;100.00
71145;BME280;58812;47.698;17.726;2023-07-20T03:53:32;99688.00;;;19.21;100.00
71145;BME280;58812;47.698;17.726;2023-07-20T03:55:57;99662.62;;;19.09;100.00
71145;BME280;58812;47.698;17.726;2023-07-20T03:58:23;99676.09;;;19.23;100.00
71145;BME280;58812;47.698;17.726;2023-07-20T04:00:50;99672.72;;;19.34;100.00
71145;BME280;58812;47.698;17.726;2023-07-20T04:03:16;99670.63;;;19.29;100.00
71145;BME280;58812;47.698;17.726;2023-07-20T04:05:42;99664.25;;;19.48;99.05
71145;BME280;58812;47.698;17.726;2023-07-20T04:08:08;99667.56;;;19.51;98.48
71145;BME280;58812;47.698;17.726;2023-07-20T04:10:33;99660.75;;;19.41;99.04
71145;BME280;58812;47.698;17.726;2023-07-20T04:12:59;99668.06;;;19.41;99.48
71145;BME280;58812;47.698;17.726;2023-07-20T04:15:25;99662.53;;;19.54;99.04
71145;BME280;58812;47.698;17.726;2023-07-20T04:17:50;99665.47;;;19.59;98.16
71145;BME280;58812;47.698;17.726;2023-07-20T04:20:16;99665.25;;;19.54;98.25
71145;BME280;58812;47.698;17.726;2023-07-20T04:22:43;99666.41;;;19.71;97.50
71145;BME280;58812;47.698;17.726;2023-07-20T04:25:08;99669.84;;;19.85;95.78
71145;BME280;58812;47.698;17.726;2023-07-20T04:27:35;99669.91;;;20.04;94.70
71145;BME280;58812;47.698;17.726;2023-07-20T04:30:01;99668.75;;;20.36;93.83
71145;BME280;58812;47.698;17.726;2023-07-20T04:32:27;99681.97;;;20.58;92.49
71145;BME280;58812;47.698;17.726;2023-07-20T04:34:52;99691.16;;;20.75;91.62
71145;BME280;58812;47.698;17.726;2023-07-20T04:37:18;99689.22;;;20.82;89.70
71145;BME280;58812;47.698;17.726;2023-07-20T04:39:43;99688.16;;;20.83;87.38
71145;BME280;58812;47.698;17.726;2023-07-20T04:42:08;99694.78;;;21.05;85.85
71145;BME280;58812;47.698;17.726;2023-07-20T04:44:34;99697.78;;;21.34;84.49
71145;BME280;58812;47.698;17.726;2023-07-20T04:46:59;99692.59;;;21.44;84.04
71145;BME280;58812;47.698;17.726;2023-07-20T04:49:25;99700.03;;;21.67;81.75
71145;BME280;58812;47.698;17.726;2023-07-20T04:51:51;99704.47;;;21.92;81.07
71145;BME280;58812;47.698;17.726;2023-07-20T04:54:17;99699.56;;;22.12;80.32
71145;BME280;58812;47.698;17.726;2023-07-20T04:56:43;99701.88;;;21.97;80.12
71145;BME280;58812;47.698;17.726;2023-07-20T04:59:09;99702.41;;;21.75;79.93
71145;BME280;58812;47.698;17.726;2023-07-20T05:01:34;99712.63;;;21.92;79.25
71145;BME280;58812;47.698;17.726;2023-07-20T05:04:00;99712.41;;;22.05;77.56
71145;BME280;58812;47.698;17.726;2023-07-20T05:06:25;99715.97;;;22.05;77.37
71145;BME280;58812;47.698;17.726;2023-07-20T05:11:16;99723.03;;;22.13;75.85
71145;BME280;58812;47.698;17.726;2023-07-20T05:13:41;99722.41;;;22.23;75.54
71145;BME280;58812;47.698;17.726;2023-07-20T05:16:07;99723.38;;;22.87;73.74
71145;BME280;58812;47.698;17.726;2023-07-20T05:18:32;99721.47;;;22.52;71.57
71145;BME280;58812;47.698;17.726;2023-07-20T05:20:58;99731.56;;;22.63;72.40
71145;BME280;58812;47.698;17.726;2023-07-20T05:23:24;99732.75;;;22.79;71.54
71145;BME280;58812;47.698;17.726;2023-07-20T05:25:56;99732.63;;;22.51;71.16
71145;BME280;58812;47.698;17.726;2023-07-20T05:28:23;99729.66;;;22.76;71.04
71145;BME280;58812;47.698;17.726;2023-07-20T05:30:49;99726.56;;;22.13;71.83
71145;BME280;58812;47.698;17.726;2023-07-20T05:33:17;99739.28;;;22.55;70.72
71145;BME280;58812;47.698;17.726;2023-07-20T05:35:42;99730.16;;;22.49;68.46
71145;BME280;58812;47.698;17.726;2023-07-20T05:38:08;99736.75;;;22.77;66.20
71145;BME280;58812;47.698;17.726;2023-07-20T05:40:37;99743.25;;;23.51;64.83
71145;BME280;58812;47.698;17.726;2023-07-20T05:43:02;99761.41;;;23.57;63.32
71145;BME280;58812;47.698;17.726;2023-07-20T05:45:28;99756.44;;;23.83;61.81
71145;BME280;58812;47.698;17.726;2023-07-20T05:47:53;99746.53;;;24.10;61.16
71145;BME280;58812;47.698;17.726;2023-07-20T05:50:19;99748.28;;;24.16;60.08
71145;BME280;58812;47.698;17.726;2023-07-20T05:52:44;99755.50;;;24.22;59.36
71145;BME280;58812;47.698;17.726;2023-07-20T05:55:10;99765.69;;;24.61;58.01
71145;BME280;58812;47.698;17.726;2023-07-20T05:57:35;99756.59;;;24.94;56.94
71145;BME280;58812;47.698;17.726;2023-07-20T06:00:02;99768.69;;;24.59;57.21
71145;BME280;58812;47.698;17.726;2023-07-20T06:02:28;99766.72;;;24.93;56.38
71145;BME280;58812;47.698;17.726;2023-07-20T06:04:53;99772.81;;;25.17;56.02
71145;BME280;58812;47.698;17.726;2023-07-20T06:07:19;99771.94;;;25.34;55.00
71145;BME280;58812;47.698;17.726;2023-07-20T06:09:45;99780.16;;;25.12;55.29
71145;BME280;58812;47.698;17.726;2023-07-20T06:12:10;99776.88;;;24.76;55.22
71145;BME280;58812;47.698;17.726;2023-07-20T06:14:36;99781.50;;;25.09;53.93
71145;BME280;58812;47.698;17.726;2023-07-20T06:17:01;99777.28;;;25.23;54.28
71145;BME280;58812;47.698;17.726;2023-07-20T06:19:27;99780.34;;;25.05;54.88
71145;BME280;58812;47.698;17.726;2023-07-20T06:21:52;99777.34;;;24.90;54.96
71145;BME280;58812;47.698;17.726;2023-07-20T06:24:17;99783.69;;;24.73;54.80
71145;BME280;58812;47.698;17.726;2023-07-20T06:26:43;99789.41;;;25.27;53.56
71145;BME280;58812;47.698;17.726;2023-07-20T06:29:08;99778.31;;;24.78;54.95
71145;BME280;58812;47.698;17.726;2023-07-20T06:31:35;99780.91;;;24.90;54.78
71145;BME280;58812;47.698;17.726;2023-07-20T06:34:00;99782.63;;;24.41;56.31
71145;BME280;58812;47.698;17.726;2023-07-20T06:36:26;99786.38;;;24.35;57.35
71145;BME280;58812;47.698;17.726;2023-07-20T06:38:52;99787.22;;;24.23;58.24
71145;BME280;58812;47.698;17.726;2023-07-20T06:41:18;99791.09;;;23.94;58.75
71145;BME280;58812;47.698;17.726;2023-07-20T06:43:44;99787.41;;;24.34;58.92
71145;BME280;58812;47.698;17.726;2023-07-20T06:46:09;99792.66;;;24.52;57.70
71145;BME280;58812;47.698;17.726;2023-07-20T06:48:34;99795.78;;;24.27;58.00
71145;BME280;58812;47.698;17.726;2023-07-20T06:51:00;99807.19;;;24.07;59.41
71145;BME280;58812;47.698;17.726;2023-07-20T06:53:25;99813.88;;;23.99;60.27
71145;BME280;58812;47.698;17.726;2023-07-20T06:55:51;99810.19;;;24.22;59.25
71145;BME280;58812;47.698;17.726;2023-07-20T06:58:16;99805.16;;;24.14;59.19
71145;BME280;58812;47.698;17.726;2023-07-20T07:00:43;99815.22;;;24.76;58.04
71145;BME280;58812;47.698;17.726;2023-07-20T07:03:08;99806.09;;;24.37;57.66
71145;BME280;58812;47.698;17.726;2023-07-20T07:05:37;99817.94;;;24.59;57.03
71145;BME280;58812;47.698;17.726;2023-07-20T07:08:04;99813.72;;;25.24;56.04
71145;BME280;58812;47.698;17.726;2023-07-20T07:10:30;99803.59;;;25.68;54.27
71145;BME280;58812;47.698;17.726;2023-07-20T07:12:55;99815.16;;;26.51;51.99
71145;BME280;58812;47.698;17.726;2023-07-20T07:15:21;99806.25;;;26.39;51.94
71145;BME280;58812;47.698;17.726;2023-07-20T07:17:46;99812.75;;;25.79;51.98
71145;BME280;58812;47.698;17.726;2023-07-20T07:20:11;99819.00;;;25.09;53.81
71145;BME280;58812;47.698;17.726;2023-07-20T07:22:37;99810.91;;;24.80;54.52
71145;BME280;58812;47.698;17.726;2023-07-20T07:25:03;99816.56;;;25.12;54.44
71145;BME280;58812;47.698;17.726;2023-07-20T07:27:29;99826.28;;;25.03;54.08
71145;BME280;58812;47.698;17.726;2023-07-20T07:29:54;99828.63;;;24.61;55.12
71145;BME280;58812;47.698;17.726;2023-07-20T07:32:20;99829.53;;;24.33;56.31
71145;BME280;58812;47.698;17.726;2023-07-20T07:34:46;99814.69;;;24.29;56.59
71145;BME280;58812;47.698;17.726;2023-07-20T07:37:13;99819.09;;;24.01;57.12
71145;BME280;58812;47.698;17.726;2023-07-20T07:39:39;99819.56;;;23.81;58.30
71145;BME280;58812;47.698;17.726;2023-07-20T07:42:05;99824.19;;;24.38;57.29
71145;BME280;58812;47.698;17.726;2023-07-20T07:44:31;99827.44;;;24.23;57.86
71145;BME280;58812;47.698;17.726;2023-07-20T07:46:56;99829.72;;;24.43;57.41
71145;BME280;58812;47.698;17.726;2023-07-20T07:49:22;99833.47;;;24.70;57.14
71145;BME280;58812;47.698;17.726;2023-07-20T07:51:47;99828.97;;;24.47;56.86
71145;BME280;58812;47.698;17.726;2023-07-20T07:54:13;99842.72;;;24.36;57.98
71145;BME280;58812;47.698;17.726;2023-07-20T07:56:39;99848.72;;;24.66;56.20
71145;BME280;58812;47.698;17.726;2023-07-20T07:59:04;99850.34;;;24.34;57.63
71145;BME280;58812;47.698;17.726;2023-07-20T08:01:30;99846.38;;;24.41;57.92
71145;BME280;58812;47.698;17.726;2023-07-20T08:03:55;99860.00;;;24.53;57.47
71145;BME280;58812;47.698;17.726;2023-07-20T08:06:21;99866.31;;;25.21;55.68
71145;BME280;58812;47.698;17.726;2023-07-20T08:08:47;99864.50;;;26.19;52.94
71145;BME280;58812;47.698;17.726;2023-07-20T08:11:12;99869.47;;;26.49;51.88
71145;BME280;58812;47.698;17.726;2023-07-20T08:13:38;99871.59;;;26.69;51.09
71145;BME280;58812;47.698;17.726;2023-07-20T08:16:04;99873.69;;;26.62;50.72
71145;BME280;58812;47.698;17.726;2023-07-20T08:18:29;99870.13;;;26.07;52.23
71145;BME280;58812;47.698;17.726;2023-07-20T08:20:54;99873.97;;;26.06;51.76
71145;BME280;58812;47.698;17.726;2023-07-20T08:23:20;99872.06;;;25.85;52.05
71145;BME280;58812;47.698;17.726;2023-07-20T08:25:46;99878.03;;;25.60;52.22
71145;BME280;58812;47.698;17.726;2023-07-20T08:28:13;99866.78;;;25.01;54.37
71145;BME280;58812;47.698;17.726;2023-07-20T08:30:46;99859.00;;;25.10;54.08
71145;BME280;58812;47.698;17.726;2023-07-20T08:33:17;99855.00;;;25.00;54.78
71145;BME280;58812;47.698;17.726;2023-07-20T08:35:46;99855.53;;;24.81;54.97
71145;BME280;58812;47.698;17.726;2023-07-20T08:38:12;99852.62;;;24.70;55.36
71145;BME280;58812;47.698;17.726;2023-07-20T08:40:45;99843.94;;;24.73;55.91
71145;BME280;58812;47.698;17.726;2023-07-20T08:43:11;99851.22;;;24.51;56.29
71145;BME280;58812;47.698;17.726;2023-07-20T08:45:39;99848.03;;;24.25;56.41
71145;BME280;58812;47.698;17.726;2023-07-20T08:48:06;99860.59;;;24.38;56.13
71145;BME280;58812;47.698;17.726;2023-07-20T08:50:32;99873.59;;;24.48;56.27
71145;BME280;58812;47.698;17.726;2023-07-20T08:52:59;99864.56;;;24.64;56.52
71145;BME280;58812;47.698;17.726;2023-07-20T08:55:28;99866.75;;;24.79;55.90
71145;BME280;58812;47.698;17.726;2023-07-20T08:57:55;99881.00;;;24.64;55.76
71145;BME280;58812;47.698;17.726;2023-07-20T09:00:22;99870.69;;;24.55;56.30
71145;BME280;58812;47.698;17.726;2023-07-20T09:02:50;99867.97;;;24.71;56.84
71145;BME280;58812;47.698;17.726;2023-07-20T09:05:18;99871.13;;;24.97;54.72
71145;BME280;58812;47.698;17.726;2023-07-20T09:07:44;99874.91;;;24.96;54.89
71145;BME280;58812;47.698;17.726;2023-07-20T09:10:10;99872.25;;;25.01;54.33
71145;BME280;58812;47.698;17.726;2023-07-20T09:12:38;99869.16;;;25.09;54.49
71145;BME280;58812;47.698;17.726;2023-07-20T09:15:05;99867.62;;;25.18;54.91
71145;BME280;58812;47.698;17.726;2023-07-20T09:17:31;99879.00;;;25.10;53.42
71145;BME280;58812;47.698;17.726;2023-07-20T09:19:56;99872.09;;;25.24;52.50
71145;BME280;58812;47.698;17.726;2023-07-20T09:22:25;99862.97;;;25.02;53.71
71145;BME280;58812;47.698;17.726;2023-07-20T09:24:54;99851.44;;;25.00;53.50
71145;BME280;58812;47.698;17.726;2023-07-20T09:27:20;99878.06;;;25.04;53.95
71145;BME280;58812;47.698;17.726;2023-07-20T09:29:50;99871.59;;;24.94;53.16
71145;BME280;58812;47.698;17.726;2023-07-20T09:32:19;99880.50;;;25.18;53.02
71145;BME280;58812;47.698;17.726;2023-07-20T09:34:46;99887.37;;;25.20;53.36
71145;BME280;58812;47.698;17.726;2023-07-20T09:37:11;99882.00;;;25.47;52.93
71145;BME280;58812;47.698;17.726;2023-07-20T09:39:44;99882.31;;;26.17;51.31
71145;BME280;58812;47.698;17.726;2023-07-20T09:42:11;99880.00;;;27.32;47.92
71145;BME280;58812;47.698;17.726;2023-07-20T09:44:38;99879.56;;;27.55;46.58
71145;BME280;58812;47.698;17.726;2023-07-20T09:47:04;99885.41;;;26.84;48.18
71145;BME280;58812;47.698;17.726;2023-07-20T09:49:29;99890.28;;;27.09;46.37
71145;BME280;58812;47.698;17.726;2023-07-20T09:51:55;99888.53;;;27.30;45.35
71145;BME280;58812;47.698;17.726;2023-07-20T09:54:22;99887.44;;;27.36;46.51
71145;BME280;58812;47.698;17.726;2023-07-20T09:56:50;99885.34;;;28.27;43.04
71145;BME280;58812;47.698;17.726;2023-07-20T09:59:16;99894.50;;;28.42;41.41
71145;BME280;58812;47.698;17.726;2023-07-20T10:01:42;99900.28;;;28.56;41.59
71145;BME280;58812;47.698;17.726;2023-07-20T10:04:11;99893.94;;;28.56;40.77
71145;BME280;58812;47.698;17.726;2023-07-20T10:06:39;99880.47;;;28.95;40.61
71145;BME280;58812;47.698;17.726;2023-07-20T10:09:07;99892.56;;;28.73;41.13
71145;BME280;58812;47.698;17.726;2023-07-20T10:11:36;99888.06;;;28.11;41.98
71145;BME280;58812;47.698;17.726;2023-07-20T10:14:04;99889.75;;;29.60;39.54
71145;BME280;58812;47.698;17.726;2023-07-20T10:16:34;99894.19;;;30.16;38.77
71145;BME280;58812;47.698;17.726;2023-07-20T10:19:55;99885.81;;;30.31;37.99
71145;BME280;58812;47.698;17.726;2023-07-20T10:22:06;99884.72;;;30.66;36.50
71145;BME280;58812;47.698;17.726;2023-07-20T10:24:34;99890.16;;;30.81;37.36
71145;BME280;58812;47.698;17.726;2023-07-20T10:27:00;99894.47;;;31.22;36.17
71145;BME280;58812;47.698;17.726;2023-07-20T10:29:26;99901.94;;;30.03;36.74
71145;BME280;58812;47.698;17.726;2023-07-20T10:31:54;99900.47;;;29.62;37.82
71145;BME280;58812;47.698;17.726;2023-07-20T10:34:20;99903.47;;;30.74;36.08
71145;BME280;58812;47.698;17.726;2023-07-20T10:36:46;99888.19;;;29.93;37.89
71145;BME280;58812;47.698;17.726;2023-07-20T10:39:33;99890.12;;;29.08;39.10
71145;BME280;58812;47.698;17.726;2023-07-20T10:42:09;99883.22;;;28.80;39.20
71145;BME280;58812;47.698;17.726;2023-07-20T10:44:38;99882.59;;;28.27;40.10
71145;BME280;58812;47.698;17.726;2023-07-20T10:47:09;99879.56;;;28.28;40.31
71145;BME280;58812;47.698;17.726;2023-07-20T10:49:58;99877.66;;;28.29;41.42
71145;BME280;58812;47.698;17.726;2023-07-20T10:52:25;99883.50;;;28.53;40.76
71145;BME280;58812;47.698;17.726;2023-07-20T10:54:50;99888.19;;;29.03;40.68
71145;BME280;58812;47.698;17.726;2023-07-20T10:57:30;99884.59;;;29.08;39.79
71145;BME280;58812;47.698;17.726;2023-07-20T11:00:12;99884.59;;;28.67;39.70
71145;BME280;58812;47.698;17.726;2023-07-20T11:02:46;99877.16;;;28.98;38.85
71145;BME280;58812;47.698;17.726;2023-07-20T11:05:34;99884.50;;;29.48;39.02
71145;BME280;58812;47.698;17.726;2023-07-20T11:08:00;99881.19;;;29.57;38.96
71145;BME280;58812;47.698;17.726;2023-07-20T11:10:27;99878.63;;;29.75;38.42
71145;BME280;58812;47.698;17.726;2023-07-20T11:13:21;99893.06;;;29.52;38.48
71145;BME280;58812;47.698;17.726;2023-07-20T11:18:25;99888.44;;;30.02;38.64
71145;BME280;58812;47.698;17.726;2023-07-20T11:20:51;99881.78;;;29.38;39.39
71145;BME280;58812;47.698;17.726;2023-07-20T11:23:17;99885.25;;;29.79;38.67
71145;BME280;58812;47.698;17.726;2023-07-20T11:25:42;99877.81;;;29.70;38.58
71145;BME280;58812;47.698;17.726;2023-07-20T11:28:09;99875.66;;;29.57;38.98
71145;BME280;58812;47.698;17.726;2023-07-20T11:30:37;99870.81;;;29.08;38.77
71145;BME280;58812;47.698;17.726;2023-07-20T11:33:04;99873.81;;;29.16;39.07
71145;BME280;58812;47.698;17.726;2023-07-20T11:35:30;99868.56;;;29.35;39.27
71145;BME280;58812;47.698;17.726;2023-07-20T11:37:56;99863.00;;;30.15;37.64
71145;BME280;58812;47.698;17.726;2023-07-20T11:40:22;99862.28;;;30.78;36.35
71145;BME280;58812;47.698;17.726;2023-07-20T11:42:48;99855.53;;;31.42;35.20
71145;BME280;58812;47.698;17.726;2023-07-20T11:45:19;99860.50;;;31.45;35.03
71145;BME280;58812;47.698;17.726;2023-07-20T11:47:44;99853.28;;;31.20;33.89
71145;BME280;58812;47.698;17.726;2023-07-20T11:50:10;99850.09;;;31.37;34.56
71145;BME280;58812;47.698;17.726;2023-07-20T11:52:39;99848.31;;;31.89;33.82
71145;BME280;58812;47.698;17.726;2023-07-20T11:55:06;99853.12;;;31.78;33.49
71145;BME280;58812;47.698;17.726;2023-07-20T11:57:32;99850.31;;;31.11;34.13
71145;BME280;58812;47.698;17.726;2023-07-20T12:00:02;99845.00;;;30.91;33.10
71145;BME280;58812;47.698;17.726;2023-07-20T12:02:37;99845.59;;;31.12;33.92
71145;BME280;58812;47.698;17.726;2023-07-20T12:05:04;99849.28;;;31.07;33.45
71145;BME280;58812;47.698;17.726;2023-07-20T12:07:35;99843.63;;;31.18;33.23
71145;BME280;58812;47.698;17.726;2023-07-20T12:10:06;99839.13;;;31.27;33.30
71145;BME280;58812;47.698;17.726;2023-07-20T12:12:39;99840.53;;;31.48;32.53
71145;BME280;58812;47.698;17.726;2023-07-20T12:15:14;99839.53;;;31.63;32.53
71145;BME280;58812;47.698;17.726;2023-07-20T12:17:44;99838.91;;;30.60;32.94
71145;BME280;58812;47.698;17.726;2023-07-20T12:20:10;99837.84;;;30.90;32.99
71145;BME280;58812;47.698;17.726;2023-07-20T12:22:39;99820.78;;;31.79;32.47
71145;BME280;58812;47.698;17.726;2023-07-20T12:25:06;99829.56;;;31.14;33.31
71145;BME280;58812;47.698;17.726;2023-07-20T12:27:32;99828.16;;;31.17;33.50
71145;BME280;58812;47.698;17.726;2023-07-20T12:29:57;99823.41;;;31.46;32.47
71145;BME280;58812;47.698;17.726;2023-07-20T12:32:22;99820.53;;;31.32;33.01
71145;BME280;58812;47.698;17.726;2023-07-20T12:34:48;99814.38;;;31.59;33.30
71145;BME280;58812;47.698;17.726;2023-07-20T12:37:13;99820.75;;;32.03;32.41
71145;BME280;58812;47.698;17.726;2023-07-20T12:39:39;99816.31;;;31.59;33.20
71145;BME280;58812;47.698;17.726;2023-07-20T12:42:06;99811.47;;;30.74;34.36
71145;BME280;58812;47.698;17.726;2023-07-20T12:44:31;99813.97;;;31.23;33.44
71145;BME280;58812;47.698;17.726;2023-07-20T12:46:57;99808.56;;;31.61;32.41
71145;BME280;58812;47.698;17.726;2023-07-20T12:49:22;99806.56;;;31.43;33.09
71145;BME280;58812;47.698;17.726;2023-07-20T12:51:47;99805.84;;;31.56;32.46
71145;BME280;58812;47.698;17.726;2023-07-20T12:54:13;99803.19;;;31.70;33.13
71145;BME280;58812;47.698;17.726;2023-07-20T12:56:38;99809.41;;;31.37;32.72
71145;BME280;58812;47.698;17.726;2023-07-20T12:59:03;99814.06;;;31.85;33.36